Terminal Aerodrome Forecast
Issued by NWS

Home | Current Version | Previous Version | Text Only | Print | Product List | Glossary On
Versions: 1 2 3 4 5 6 7 8 9 10 11 12 13 14 15 16 17 18 19 20 21 22 23 24 25
000
FTUS41 KBUF 250900 AAA
TAFIAG
TAF AMD
KIAG 250912Z 2509/2606 24010KT P6SM OVC040
     FM251400 22014KT P6SM SCT040 BKN070
     FM251500 22018G28KT P6SM SCT040 BKN060
     FM251900 24020G32KT P6SM VCSH SCT015 BKN025
     FM252200 26014G23KT P6SM SCT040 BKN250
     FM260200 27012KT P6SM SCT050=

USA.gov is the U.S. government's official web portal to all federal, state and local government web resources and services.